createdAt,value
2023-02-21T00:01:24.586Z,1.02
2023-02-21T00:04:48.743Z,0.54
2023-02-21T00:08:13.842Z,-0.06
2023-02-21T00:11:37.496Z,-0.04
2023-02-21T00:15:01.281Z,0.51
2023-02-21T00:18:24.926Z,0.85
2023-02-21T00:21:49.259Z,0.50
2023-02-21T00:25:14.512Z,1.19
2023-02-21T00:28:38.371Z,1.19
2023-02-21T00:32:02.299Z,1.33
2023-02-21T00:35:26.276Z,1.14
2023-02-21T00:38:50.132Z,1.11
2023-02-21T00:42:14.582Z,1.29
2023-02-21T00:45:38.437Z,1.31
2023-02-21T00:49:02.537Z,1.04
2023-02-21T00:52:26.294Z,0.86
2023-02-21T00:55:49.853Z,0.93
2023-02-21T00:59:14.530Z,0.56
2023-02-21T01:02:38.356Z,0.80
2023-02-21T01:06:02.066Z,0.27
2023-02-21T01:09:26.039Z,-0.22
2023-02-21T01:12:49.682Z,-0.17
2023-02-21T01:16:14.976Z,-0.64
2023-02-21T01:19:38.807Z,-0.04
2023-02-21T01:23:02.254Z,0.21
2023-02-21T01:26:27.661Z,0.49
2023-02-21T01:29:51.123Z,0.64
2023-02-21T01:33:16.503Z,0.11
2023-02-21T01:36:40.303Z,0.25
2023-02-21T01:40:03.961Z,-0.42
2023-02-21T01:43:34.386Z,0.34
2023-02-21T01:46:58.305Z,0.51
2023-02-21T01:50:38.849Z,0.52
2023-02-21T01:54:02.673Z,0.37
2023-02-21T01:57:27.423Z,0.79
2023-02-21T02:00:51.170Z,0.54
2023-02-21T02:04:16.546Z,0.10
2023-02-21T02:07:41.899Z,-0.79
2023-02-21T02:11:12.620Z,-0.88
2023-02-21T02:14:39.110Z,-0.11
2023-02-21T02:18:02.347Z,-0.29
2023-02-21T02:21:39.960Z,-0.23
2023-02-21T02:25:25.219Z,-0.44
2023-02-21T02:28:50.603Z,0.25
2023-02-21T02:32:19.882Z,-0.96
2023-02-21T02:35:32.505Z,-1.28
2023-02-21T02:38:47.686Z,-1.13
2023-02-21T02:42:04.136Z,-0.75
2023-02-21T02:45:15.091Z,-0.42
2023-02-21T02:48:24.812Z,0.07
2023-02-21T02:51:35.201Z,-0.22
2023-02-21T02:54:40.959Z,0.08
2023-02-21T02:57:49.007Z,0.08
2023-02-21T03:01:06.978Z,-0.25
2023-02-21T03:04:33.244Z,-0.89
2023-02-21T03:07:49.514Z,-1.13
2023-02-21T03:11:03.160Z,-0.99
2023-02-21T03:14:15.838Z,-0.83
2023-02-21T03:17:25.214Z,-0.61
2023-02-21T03:20:33.807Z,-0.37
2023-02-21T03:23:43.392Z,0.12
2023-02-21T03:26:53.952Z,-0.69
2023-02-21T03:30:04.529Z,-0.69
2023-02-21T03:33:11.209Z,-0.22
2023-02-21T03:36:17.853Z,0.23
2023-02-21T03:39:25.418Z,-0.48
2023-02-21T03:42:31.672Z,-0.45
2023-02-21T03:45:38.504Z,-0.87
2023-02-21T03:48:45.009Z,-0.43
2023-02-21T03:51:51.065Z,-0.06
2023-02-21T03:54:58.913Z,-0.76
2023-02-21T03:58:05.525Z,-0.30
2023-02-21T04:01:12.066Z,-0.51
2023-02-21T04:04:18.793Z,-0.68
2023-02-21T04:07:25.151Z,-0.53
2023-02-21T04:10:35.900Z,-0.37
2023-02-21T04:13:44.471Z,-0.17
2023-02-21T04:16:50.708Z,0.02
2023-02-21T04:19:56.894Z,-0.20
2023-02-21T04:23:03.909Z,-0.56
2023-02-21T04:26:11.508Z,-0.24
2023-02-21T04:29:17.834Z,-1.08
2023-02-21T04:32:24.031Z,-1.19
2023-02-21T04:35:30.067Z,-1.50
2023-02-21T04:38:37.702Z,-1.01
2023-02-21T04:41:45.385Z,-0.82
2023-02-21T04:44:59.665Z,-0.59
2023-02-21T04:48:07.491Z,-1.39
2023-02-21T04:51:15.400Z,-0.98
2023-02-21T04:54:22.265Z,-0.79
2023-02-21T04:57:29.687Z,-1.10
2023-02-21T05:00:36.439Z,-0.55
2023-02-21T05:03:42.745Z,-0.58
2023-02-21T05:06:48.950Z,-0.24
2023-02-21T05:09:54.904Z,-0.73
2023-02-21T05:13:02.952Z,-0.26
2023-02-21T05:16:09.396Z,-0.46
2023-02-21T05:19:27.452Z,-0.47
2023-02-21T05:22:34.505Z,-0.44
2023-02-21T05:25:40.812Z,-0.85
2023-02-21T05:28:48.430Z,-1.37
2023-02-21T05:31:54.885Z,-0.77
2023-02-21T05:35:01.122Z,-0.55
2023-02-21T05:38:07.243Z,-0.37
2023-02-21T05:41:13.838Z,-0.32
2023-02-21T05:44:21.729Z,-0.95
2023-02-21T05:47:27.967Z,-0.25
2023-02-21T05:50:33.877Z,-0.72
2023-02-21T05:53:40.260Z,-1.07
2023-02-21T05:56:47.839Z,-1.21
2023-02-21T05:59:55.510Z,-0.75
2023-02-21T06:03:04.562Z,-0.67
2023-02-21T06:06:11.186Z,-0.40
2023-02-21T06:09:17.814Z,0.00
2023-02-21T06:12:24.137Z,-0.87
2023-02-21T06:15:31.595Z,-0.74
2023-02-21T06:18:37.792Z,0.11
2023-02-21T06:21:44.408Z,-0.51
2023-02-21T06:24:52.112Z,-0.28
2023-02-21T06:27:58.572Z,-0.14
2023-02-21T06:31:07.162Z,0.05
2023-02-21T06:34:13.468Z,0.74
2023-02-21T06:37:20.280Z,1.20
2023-02-21T06:40:26.758Z,1.61
2023-02-21T06:43:32.828Z,1.89
2023-02-21T06:46:40.524Z,2.24
2023-02-21T06:49:46.853Z,2.47
2023-02-21T06:52:53.644Z,1.82
2023-02-21T06:55:59.964Z,2.63
2023-02-21T06:59:06.116Z,2.81
2023-02-21T07:02:19.284Z,3.05
2023-02-21T07:05:25.428Z,3.54
2023-02-21T07:08:31.513Z,3.92
2023-02-21T07:11:37.745Z,3.97
2023-02-21T07:14:43.781Z,3.88
2023-02-21T07:17:51.838Z,4.25
2023-02-21T07:20:58.328Z,4.69
2023-02-21T07:24:05.524Z,5.24
2023-02-21T07:27:12.036Z,5.38
2023-02-21T07:30:18.698Z,5.40
2023-02-21T07:33:26.176Z,5.88
2023-02-21T07:36:32.949Z,6.07
2023-02-21T07:39:57.847Z,6.37
2023-02-21T07:43:04.522Z,6.35
2023-02-21T07:46:11.613Z,6.59
2023-02-21T07:49:19.734Z,6.39
2023-02-21T07:52:25.729Z,7.08
2023-02-21T07:55:31.655Z,7.65
2023-02-21T07:58:38.341Z,8.09
2023-02-21T08:01:44.254Z,8.55
2023-02-21T08:04:53.576Z,8.46
2023-02-21T08:07:59.652Z,8.80
2023-02-21T08:11:05.945Z,9.17
2023-02-21T08:14:12.236Z,9.45
2023-02-21T08:17:18.307Z,10.07
2023-02-21T08:20:26.118Z,9.76
2023-02-21T08:23:32.326Z,10.19
2023-02-21T08:26:38.301Z,10.05
2023-02-21T08:29:44.559Z,10.83
2023-02-21T08:32:51.515Z,11.10
2023-02-21T08:35:59.361Z,10.88
2023-02-21T08:39:05.916Z,10.58
2023-02-21T08:42:13.397Z,10.80
2023-02-21T08:45:21.869Z,11.18
2023-02-21T08:48:28.049Z,11.25
2023-02-21T08:51:36.269Z,11.47
2023-02-21T08:54:42.343Z,11.71
2023-02-21T08:57:50.518Z,11.44
2023-02-21T09:00:57.285Z,11.95
2023-02-21T09:04:04.434Z,11.45
2023-02-21T09:07:13.718Z,12.21
2023-02-21T09:10:20.356Z,11.96
2023-02-21T09:13:26.594Z,12.25
2023-02-21T09:16:33.523Z,12.30
2023-02-21T09:19:40.121Z,12.39
2023-02-21T09:22:48.515Z,12.03
2023-02-21T09:25:54.642Z,11.75
2023-02-21T09:29:01.132Z,12.18
2023-02-21T09:32:07.320Z,12.66
2023-02-21T09:35:15.394Z,12.53
2023-02-21T09:38:23.173Z,12.92
2023-02-21T09:41:29.725Z,13.02
2023-02-21T09:44:36.766Z,13.55
2023-02-21T09:47:45.583Z,13.61
2023-02-21T09:50:54.913Z,13.13
2023-02-21T09:54:04.682Z,13.84
2023-02-21T09:57:15.163Z,14.27
2023-02-21T10:00:25.013Z,14.77
2023-02-21T10:03:47.214Z,13.28
2023-02-21T10:07:01.127Z,15.20
2023-02-21T10:10:16.003Z,14.64
2023-02-21T10:13:36.581Z,15.13
2023-02-21T10:16:50.031Z,15.67
2023-02-21T10:20:00.664Z,15.23
2023-02-21T10:23:17.258Z,15.57
2023-02-21T10:26:29.045Z,15.31
2023-02-21T10:29:44.111Z,15.61
2023-02-21T10:32:51.166Z,15.49
2023-02-21T10:35:57.698Z,16.72
2023-02-21T10:39:12.837Z,15.88
2023-02-21T10:42:29.804Z,16.52
2023-02-21T10:45:40.340Z,16.46
2023-02-21T10:48:49.403Z,16.54
2023-02-21T10:52:10.684Z,16.62
2023-02-21T10:55:31.686Z,16.83
2023-02-21T10:58:41.361Z,16.72
2023-02-21T11:01:49.294Z,16.98
2023-02-21T11:04:56.832Z,16.83
2023-02-21T11:08:07.721Z,17.28
2023-02-21T11:11:14.566Z,17.06
2023-02-21T11:14:26.251Z,16.97
2023-02-21T11:17:33.494Z,16.83
2023-02-21T11:20:39.462Z,17.09
2023-02-21T11:23:50.470Z,16.66
2023-02-21T11:26:56.933Z,17.07
2023-02-21T11:30:15.385Z,16.84
2023-02-21T11:33:23.645Z,16.84
2023-02-21T11:36:32.115Z,16.88
2023-02-21T11:39:39.086Z,17.11
2023-02-21T11:42:45.431Z,17.09
2023-02-21T11:46:06.446Z,16.99
2023-02-21T11:49:22.728Z,17.31
2023-02-21T11:52:36.499Z,17.15
2023-02-21T11:55:50.674Z,17.07
2023-02-21T11:59:03.614Z,17.13
2023-02-21T12:02:47.251Z,16.82
2023-02-21T12:06:00.276Z,17.24
2023-02-21T12:09:12.347Z,17.10
2023-02-21T12:12:33.778Z,16.99
2023-02-21T12:15:55.128Z,17.49
2023-02-21T12:19:18.461Z,18.01
2023-02-21T12:22:39.592Z,17.34
2023-02-21T12:26:09.798Z,17.58
2023-02-21T12:29:30.153Z,17.68
2023-02-21T12:33:03.233Z,17.75
2023-02-21T12:36:46.812Z,17.47
2023-02-21T12:40:05.163Z,17.47
2023-02-21T12:43:31.761Z,17.64
2023-02-21T12:46:42.600Z,18.06
2023-02-21T12:49:56.322Z,17.72
2023-02-21T12:53:07.826Z,18.11
2023-02-21T12:56:19.771Z,17.74
2023-02-21T12:59:32.843Z,18.06
2023-02-21T13:02:51.743Z,17.58
2023-02-21T13:06:02.778Z,17.64
2023-02-21T13:09:18.750Z,18.17
2023-02-21T13:12:30.294Z,17.88
2023-02-21T13:15:38.008Z,18.32
2023-02-21T13:18:48.525Z,18.71
2023-02-21T13:22:29.132Z,18.76
2023-02-21T13:25:51.705Z,18.34
2023-02-21T13:29:00.140Z,18.16
2023-02-21T13:32:10.742Z,18.83
2023-02-21T13:35:22.217Z,18.47
2023-02-21T13:38:32.515Z,18.69
2023-02-21T13:41:44.409Z,18.33
2023-02-21T13:44:54.882Z,18.70
2023-02-21T13:48:32.035Z,18.64
2023-02-21T13:51:49.377Z,18.72
2023-02-21T13:55:36.372Z,19.58
2023-02-21T13:58:45.224Z,18.50
2023-02-21T14:01:51.800Z,18.76
2023-02-21T14:05:12.753Z,18.55
2023-02-21T14:08:24.678Z,18.49
2023-02-21T14:11:38.554Z,19.04
2023-02-21T14:14:47.918Z,18.29
2023-02-21T14:17:57.030Z,18.40
2023-02-21T14:21:06.342Z,18.59
2023-02-21T14:24:16.615Z,18.27
2023-02-21T14:27:40.186Z,17.63
2023-02-21T14:30:48.107Z,17.65
2023-02-21T14:33:59.114Z,18.45
2023-02-21T14:37:13.387Z,18.66
2023-02-21T14:40:32.759Z,18.87
2023-02-21T14:43:56.793Z,18.07
2023-02-21T14:47:25.787Z,18.05
2023-02-21T14:50:40.215Z,17.94
2023-02-21T14:54:15.022Z,17.23
2023-02-21T14:57:55.267Z,17.10
2023-02-21T15:01:11.435Z,16.78
2023-02-21T15:04:33.336Z,16.47
2023-02-21T15:07:54.466Z,16.17
2023-02-21T15:11:05.781Z,15.92
2023-02-21T15:14:23.209Z,15.84
2023-02-21T15:17:30.652Z,15.69
2023-02-21T15:20:40.054Z,15.46
2023-02-21T15:23:47.820Z,15.07
2023-02-21T15:27:10.345Z,14.93
2023-02-21T15:30:19.284Z,14.79
2023-02-21T15:33:28.049Z,14.50
2023-02-21T15:36:36.055Z,14.42
2023-02-21T15:39:46.680Z,14.26
2023-02-21T15:42:54.314Z,14.22
2023-02-21T15:46:03.227Z,13.93
2023-02-21T15:49:19.794Z,13.82
2023-02-21T15:52:32.469Z,13.73
2023-02-21T15:55:39.027Z,13.48
2023-02-21T15:59:20.054Z,13.59
2023-02-21T16:02:26.614Z,13.01
2023-02-21T16:05:32.983Z,12.62
2023-02-21T16:08:53.029Z,12.01
2023-02-21T16:12:04.441Z,11.87
2023-02-21T16:15:23.981Z,11.81
2023-02-21T16:18:30.656Z,11.41
2023-02-21T16:21:37.128Z,11.11
2023-02-21T16:24:44.804Z,11.08
2023-02-21T16:27:53.478Z,11.27
2023-02-21T16:31:02.072Z,10.79
2023-02-21T16:34:14.183Z,11.13
2023-02-21T16:37:20.498Z,10.88
2023-02-21T16:40:30.304Z,10.66
2023-02-21T16:43:36.440Z,10.89
2023-02-21T16:46:42.693Z,10.79
2023-02-21T16:49:48.924Z,10.65
2023-02-21T16:52:55.201Z,10.29
2023-02-21T16:56:04.047Z,10.23
2023-02-21T16:59:12.182Z,10.11
2023-02-21T17:02:18.579Z,9.83
2023-02-21T17:05:25.713Z,9.61
2023-02-21T17:08:32.152Z,9.41
2023-02-21T17:11:39.654Z,9.36
2023-02-21T17:14:45.987Z,9.15
2023-02-21T17:17:53.837Z,9.24
2023-02-21T17:21:00.745Z,8.86
2023-02-21T17:24:07.523Z,9.03
2023-02-21T17:27:15.294Z,8.67
2023-02-21T17:30:24.648Z,8.75
2023-02-21T17:33:30.915Z,8.68
2023-02-21T17:36:37.221Z,8.45
2023-02-21T17:39:43.381Z,8.63
2023-02-21T17:42:51.586Z,8.51
2023-02-21T17:45:57.935Z,8.58
2023-02-21T17:49:04.482Z,8.54
2023-02-21T17:52:11.871Z,8.38
2023-02-21T17:55:21.512Z,8.15
2023-02-21T17:58:30.833Z,8.23
2023-02-21T18:01:37.152Z,8.10
2023-02-21T18:04:43.625Z,7.77
2023-02-21T18:07:50.548Z,7.98
2023-02-21T18:10:57.000Z,8.15
2023-02-21T18:14:05.461Z,8.10
2023-02-21T18:17:12.348Z,7.91
2023-02-21T18:20:19.144Z,7.62
2023-02-21T18:23:25.650Z,7.54
2023-02-21T18:26:32.215Z,7.50
2023-02-21T18:29:40.063Z,7.40
2023-02-21T18:32:47.560Z,7.44
2023-02-21T18:35:54.304Z,7.18
2023-02-21T18:39:00.790Z,7.15
2023-02-21T18:42:07.941Z,7.70
2023-02-21T18:45:15.938Z,7.50
2023-02-21T18:48:24.495Z,7.17
2023-02-21T18:51:31.149Z,7.48
2023-02-21T18:54:37.665Z,7.16
2023-02-21T18:57:43.881Z,6.92
2023-02-21T19:00:52.270Z,7.16
2023-02-21T19:03:58.911Z,6.80
2023-02-21T19:07:08.746Z,6.83
2023-02-21T19:10:18.618Z,6.90
2023-02-21T19:13:25.112Z,6.80
2023-02-21T19:16:33.920Z,6.66
2023-02-21T19:19:40.665Z,6.57
2023-02-21T19:22:47.991Z,6.29
2023-02-21T19:25:54.767Z,6.09
2023-02-21T19:29:01.261Z,5.82
2023-02-21T19:32:09.462Z,5.81
2023-02-21T19:35:15.700Z,5.70
2023-02-21T19:38:22.093Z,5.69
2023-02-21T19:41:28.549Z,5.90
2023-02-21T19:44:34.862Z,5.78
2023-02-21T19:47:42.387Z,5.61
2023-02-21T19:50:49.404Z,5.46
2023-02-21T19:53:56.322Z,5.49
2023-02-21T19:57:02.427Z,5.25
2023-02-21T20:00:11.986Z,5.18
2023-02-21T20:03:19.578Z,5.14
2023-02-21T20:06:27.916Z,4.90
2023-02-21T20:09:35.091Z,4.81
2023-02-21T20:12:41.578Z,4.76
2023-02-21T20:15:49.818Z,4.93
2023-02-21T20:18:58.263Z,4.25
2023-02-21T20:22:05.063Z,4.55
2023-02-21T20:25:11.435Z,4.57
2023-02-21T20:28:18.412Z,4.84
2023-02-21T20:31:28.387Z,4.57
2023-02-21T20:34:36.171Z,4.34
2023-02-21T20:37:42.764Z,4.44
2023-02-21T20:40:49.444Z,4.58
2023-02-21T20:43:55.727Z,4.40
2023-02-21T20:47:02.083Z,4.12
2023-02-21T20:50:10.310Z,3.51
2023-02-21T20:53:17.800Z,2.85
2023-02-21T20:56:24.692Z,3.41
2023-02-21T20:59:34.606Z,2.94
2023-02-21T21:02:41.048Z,3.24
2023-02-21T21:05:49.323Z,2.85
2023-02-21T21:08:55.550Z,2.85
2023-02-21T21:12:02.698Z,3.21
2023-02-21T21:15:10.618Z,3.17
2023-02-21T21:18:16.753Z,3.64
2023-02-21T21:21:29.266Z,3.43
2023-02-21T21:24:35.790Z,3.13
2023-02-21T21:27:44.483Z,2.57
2023-02-21T21:30:50.817Z,2.30
2023-02-21T21:33:57.097Z,2.07
2023-02-21T21:37:05.022Z,1.94
2023-02-21T21:40:17.900Z,2.15
2023-02-21T21:43:24.881Z,2.08
2023-02-21T21:46:32.880Z,2.72
2023-02-21T21:49:39.659Z,2.12
2023-02-21T21:52:52.317Z,1.99
2023-02-21T21:56:04.694Z,2.29
2023-02-21T21:59:11.992Z,2.85
2023-02-21T22:02:18.479Z,2.78
2023-02-21T22:05:25.588Z,3.00
2023-02-21T22:08:33.389Z,2.41
2023-02-21T22:11:43.917Z,2.70
2023-02-21T22:14:50.533Z,2.61
2023-02-21T22:18:02.085Z,2.59
2023-02-21T22:21:14.301Z,2.55
2023-02-21T22:24:24.221Z,2.55
2023-02-21T22:27:30.317Z,2.76
2023-02-21T22:30:37.198Z,2.30
2023-02-21T22:33:44.182Z,1.69
2023-02-21T22:36:51.086Z,1.79
2023-02-21T22:39:58.582Z,2.46
2023-02-21T22:43:09.065Z,2.04
2023-02-21T22:46:15.386Z,2.00
2023-02-21T22:49:21.322Z,2.02
2023-02-21T22:52:27.866Z,2.10
2023-02-21T22:55:38.175Z,1.89
2023-02-21T22:58:45.172Z,2.10
2023-02-21T23:01:51.191Z,1.88
2023-02-21T23:04:59.669Z,2.18
2023-02-21T23:08:07.482Z,1.77
2023-02-21T23:11:19.565Z,2.25
2023-02-21T23:14:27.256Z,1.90
2023-02-21T23:17:33.976Z,1.41
2023-02-21T23:20:40.448Z,1.14
2023-02-21T23:23:46.963Z,1.00
2023-02-21T23:26:55.133Z,1.12
2023-02-21T23:30:01.545Z,0.60
2023-02-21T23:33:09.246Z,1.02
2023-02-21T23:36:17.401Z,1.65
2023-02-21T23:39:23.253Z,1.04
2023-02-21T23:42:31.553Z,0.91
2023-02-21T23:45:39.446Z,1.60
2023-02-21T23:48:46.264Z,1.36
2023-02-21T23:51:53.828Z,0.90
2023-02-21T23:55:00.053Z,1.05
2023-02-21T23:58:10.714Z,0.25
